createdAt,value
2019-04-03T00:01:19.677Z,4.17
2019-04-03T00:06:23.173Z,4.47
2019-04-03T00:11:26.743Z,4.45
2019-04-03T00:16:30.855Z,4.45
2019-04-03T00:21:34.504Z,4.00
2019-04-03T00:26:37.980Z,4.20
2019-04-03T00:31:41.522Z,4.30
2019-04-03T00:36:45.074Z,4.47
2019-04-03T00:41:48.554Z,4.30
2019-04-03T00:46:52.048Z,4.08
2019-04-03T00:51:57.034Z,4.40
2019-04-03T00:57:01.131Z,4.40
2019-04-03T01:02:05.036Z,4.60
2019-04-03T01:07:08.905Z,4.25
2019-04-03T01:12:12.660Z,4.30
2019-04-03T01:17:16.663Z,4.30
2019-04-03T01:22:20.129Z,4.00
2019-04-03T01:27:23.665Z,4.87
2019-04-03T01:32:27.142Z,4.50
2019-04-03T01:37:30.684Z,3.87
2019-04-03T01:42:34.164Z,4.12
2019-04-03T01:47:37.873Z,4.25
2019-04-03T01:52:41.409Z,3.92
2019-04-03T01:57:44.916Z,4.30
2019-04-03T02:02:48.384Z,4.33
2019-04-03T02:07:51.907Z,4.35
2019-04-03T02:12:55.403Z,4.10
2019-04-03T02:17:58.963Z,4.12
2019-04-03T02:23:02.449Z,4.15
2019-04-03T02:28:06.283Z,4.47
2019-04-03T02:33:10.110Z,4.05
2019-04-03T02:38:14.044Z,4.03
2019-04-03T02:43:17.599Z,4.30
2019-04-03T02:48:21.146Z,4.20
2019-04-03T02:53:25.145Z,4.25
2019-04-03T02:58:28.716Z,4.30
2019-04-03T03:03:32.690Z,4.45
2019-04-03T03:08:36.171Z,4.22
2019-04-03T03:13:44.291Z,4.37
2019-04-03T03:18:48.416Z,4.47
2019-04-03T03:23:55.502Z,4.70
2019-04-03T03:29:14.198Z,4.25
2019-04-03T03:34:05.799Z,4.65
2019-04-03T03:39:11.015Z,3.77
2019-04-03T03:44:16.155Z,4.03
2019-04-03T03:49:21.113Z,3.98
2019-04-03T03:54:26.177Z,4.25
2019-04-03T03:59:30.522Z,4.20
2019-04-03T04:04:34.196Z,4.72
2019-04-03T04:09:38.195Z,3.98
2019-04-03T04:14:41.997Z,4.60
2019-04-03T04:19:46.498Z,4.00
2019-04-03T04:24:50.077Z,3.85
2019-04-03T04:29:54.979Z,4.40
2019-04-03T04:34:58.551Z,4.17
2019-04-03T04:40:02.257Z,4.20
2019-04-03T04:45:07.230Z,4.12
2019-04-03T04:50:11.231Z,3.98
2019-04-03T04:55:14.760Z,4.60
2019-04-03T05:00:18.225Z,4.37
2019-04-03T05:05:21.968Z,3.75
2019-04-03T05:10:25.821Z,3.92
2019-04-03T05:15:29.386Z,3.90
2019-04-03T05:20:33.512Z,4.00
2019-04-03T05:25:37.046Z,3.80
2019-04-03T05:30:40.927Z,4.05
2019-04-03T05:35:46.279Z,4.70
2019-04-03T05:40:49.715Z,4.25
2019-04-03T05:45:53.249Z,3.98
2019-04-03T05:50:57.942Z,4.47
2019-04-03T05:56:02.117Z,4.12
2019-04-03T06:01:06.893Z,4.30
2019-04-03T06:06:10.906Z,4.20
2019-04-03T06:11:14.419Z,4.30
2019-04-03T06:16:17.999Z,4.30
2019-04-03T06:21:21.504Z,4.95
2019-04-03T06:26:25.330Z,4.67
2019-04-03T06:31:29.113Z,4.70
2019-04-03T06:36:32.730Z,4.40
2019-04-03T06:41:36.288Z,4.40
2019-04-03T06:46:39.772Z,4.47
2019-04-03T06:51:43.342Z,4.37
2019-04-03T06:56:46.842Z,4.47
2019-04-03T07:01:52.010Z,4.70
2019-04-03T07:06:56.604Z,4.35
2019-04-03T07:12:00.340Z,4.70
2019-04-03T07:17:05.815Z,4.33
2019-04-03T07:22:09.192Z,4.78
2019-04-03T07:27:14.605Z,4.50
2019-04-03T07:32:17.852Z,4.05
2019-04-03T07:37:21.481Z,5.10
2019-04-03T07:42:25.189Z,4.42
2019-04-03T07:47:29.259Z,4.72
2019-04-03T07:52:33.139Z,4.70
2019-04-03T07:57:37.252Z,4.33
2019-04-03T08:02:45.625Z,4.47
2019-04-03T08:07:46.302Z,4.87
2019-04-03T08:12:49.912Z,5.03
2019-04-03T08:17:54.052Z,4.35
2019-04-03T08:22:58.847Z,4.53
2019-04-03T08:28:02.402Z,4.70
2019-04-03T08:33:15.258Z,4.67
2019-04-03T08:38:13.433Z,4.20
2019-04-03T08:43:16.370Z,4.67
2019-04-03T08:48:20.118Z,4.78
2019-04-03T08:53:23.864Z,5.00
2019-04-03T08:58:27.356Z,4.60
2019-04-03T09:03:31.072Z,4.83
2019-04-03T09:08:34.611Z,4.40
2019-04-03T09:13:38.132Z,4.37
2019-04-03T09:18:42.109Z,4.60
2019-04-03T09:23:46.984Z,5.05
2019-04-03T09:28:50.578Z,4.53
2019-04-03T09:33:56.261Z,4.62
2019-04-03T09:38:59.300Z,4.87
2019-04-03T09:44:02.839Z,5.20
2019-04-03T09:49:07.571Z,5.00
2019-04-03T09:54:11.577Z,5.20
2019-04-03T09:59:16.285Z,5.08
2019-04-03T10:04:20.986Z,5.12
2019-04-03T10:09:25.419Z,5.53
2019-04-03T10:14:29.065Z,5.17
2019-04-03T10:19:33.444Z,5.47
2019-04-03T10:24:37.134Z,5.17
2019-04-03T10:29:40.943Z,5.03
2019-04-03T10:34:44.786Z,4.47
2019-04-03T10:39:48.530Z,5.47
2019-04-03T10:44:53.670Z,4.95
2019-04-03T10:49:57.423Z,5.47
2019-04-03T10:55:01.390Z,5.47
2019-04-03T11:00:07.976Z,4.95
2019-04-03T11:05:12.086Z,4.62
2019-04-03T11:10:16.897Z,5.28
2019-04-03T11:15:20.473Z,4.92
2019-04-03T11:20:23.942Z,4.90
2019-04-03T11:25:27.419Z,5.35
2019-04-03T11:30:31.270Z,5.08
2019-04-03T11:35:34.894Z,5.12
2019-04-03T11:40:38.487Z,5.10
2019-04-03T11:45:42.366Z,5.30
2019-04-03T11:50:45.939Z,4.80
2019-04-03T11:55:49.410Z,5.25
2019-04-03T12:00:54.236Z,4.92
2019-04-03T12:05:57.925Z,4.92
2019-04-03T12:11:01.963Z,4.87
2019-04-03T12:16:06.216Z,5.22
2019-04-03T12:21:13.394Z,4.90
2019-04-03T12:26:14.933Z,4.60
2019-04-03T12:31:19.278Z,4.95
2019-04-03T12:36:22.998Z,4.65
2019-04-03T12:41:27.428Z,4.85
2019-04-03T12:46:37.808Z,4.47
2019-04-03T12:51:42.481Z,4.45
2019-04-03T12:56:45.982Z,4.60
2019-04-03T13:01:50.220Z,4.47
2019-04-03T13:06:54.297Z,5.00
2019-04-03T13:11:57.826Z,4.05
2019-04-03T13:17:01.561Z,4.50
2019-04-03T13:22:05.121Z,4.25
2019-04-03T13:27:08.725Z,4.95
2019-04-03T13:32:13.246Z,4.58
2019-04-03T13:37:16.945Z,4.60
2019-04-03T13:42:20.436Z,4.45
2019-04-03T13:47:23.947Z,4.70
2019-04-03T13:52:39.241Z,4.03
2019-04-03T13:57:32.726Z,4.67
2019-04-03T14:02:36.322Z,4.55
2019-04-03T14:07:41.627Z,4.28
2019-04-03T14:12:45.871Z,4.17
2019-04-03T14:17:56.486Z,4.50
2019-04-03T14:22:54.818Z,4.75
2019-04-03T14:28:01.412Z,4.40
2019-04-03T14:33:03.625Z,4.37
2019-04-03T14:38:07.739Z,4.30
2019-04-03T14:43:11.933Z,4.70
2019-04-03T14:48:16.066Z,4.72
2019-04-03T14:53:20.160Z,4.55
2019-04-03T14:58:26.876Z,5.15
2019-04-03T15:03:30.271Z,4.67
2019-04-03T15:08:34.032Z,4.30
2019-04-03T15:13:37.695Z,4.42
2019-04-03T15:18:42.152Z,4.87
2019-04-03T15:23:46.523Z,4.42
2019-04-03T15:28:50.021Z,4.22
2019-04-03T15:33:55.438Z,4.85
2019-04-03T15:38:59.778Z,4.78
2019-04-03T15:44:04.307Z,4.65
2019-04-03T15:49:07.782Z,4.97
2019-04-03T15:54:11.314Z,4.42
2019-04-03T15:59:15.328Z,4.62
2019-04-03T16:04:19.415Z,4.92
2019-04-03T16:09:23.494Z,4.97
2019-04-03T16:14:28.517Z,4.50
2019-04-03T16:19:32.592Z,4.42
2019-04-03T16:24:36.596Z,4.65
2019-04-03T16:29:41.162Z,4.53
2019-04-03T16:34:45.253Z,4.87
2019-04-03T16:39:49.094Z,4.87
2019-04-03T16:44:53.204Z,4.28
2019-04-03T16:49:57.180Z,5.05
2019-04-03T16:55:00.967Z,4.85
2019-04-03T17:00:09.180Z,4.90
2019-04-03T17:05:14.037Z,4.47
2019-04-03T17:10:17.770Z,4.50
2019-04-03T17:15:21.493Z,5.08
2019-04-03T17:20:25.029Z,4.85
2019-04-03T17:25:38.213Z,4.78
2019-04-03T17:30:34.157Z,5.20
2019-04-03T17:35:37.885Z,4.80
2019-04-03T17:40:41.432Z,4.70
2019-04-03T17:45:46.512Z,5.12
2019-04-03T17:50:50.095Z,5.20
2019-04-03T17:55:53.633Z,4.62
2019-04-03T18:00:57.113Z,5.25
2019-04-03T18:06:00.653Z,4.67
2019-04-03T18:11:04.190Z,5.25
2019-04-03T18:16:07.720Z,4.50
2019-04-03T18:21:13.083Z,4.70
2019-04-03T18:26:16.775Z,5.15
2019-04-03T18:31:20.312Z,4.70
2019-04-03T18:36:23.923Z,4.95
2019-04-03T18:41:27.462Z,5.22
2019-04-03T18:46:32.508Z,5.30
2019-04-03T18:51:36.822Z,4.75
2019-04-03T18:56:40.993Z,4.60
2019-04-03T19:01:45.449Z,4.92
2019-04-03T19:06:49.013Z,5.03
2019-04-03T19:11:52.767Z,4.97
2019-04-03T19:16:56.344Z,5.10
2019-04-03T19:22:00.108Z,5.15
2019-04-03T19:27:03.736Z,4.92
2019-04-03T19:32:07.294Z,4.97
2019-04-03T19:37:10.929Z,5.85
2019-04-03T19:42:14.534Z,5.20
2019-04-03T19:47:18.089Z,5.30
2019-04-03T19:52:21.617Z,5.80
2019-04-03T19:57:26.812Z,5.90
2019-04-03T20:02:30.287Z,5.17
2019-04-03T20:07:33.772Z,5.75
2019-04-03T20:12:37.790Z,5.87
2019-04-03T20:17:42.224Z,6.20
2019-04-03T20:22:45.719Z,5.70
2019-04-03T20:27:51.457Z,6.12
2019-04-03T20:32:54.400Z,5.95
2019-04-03T20:37:57.951Z,5.42
2019-04-03T20:43:02.030Z,6.12
2019-04-03T20:48:05.493Z,5.53
2019-04-03T20:53:08.955Z,6.45
2019-04-03T20:58:12.535Z,5.50
2019-04-03T21:03:16.114Z,5.78
2019-04-03T21:08:19.852Z,5.75
2019-04-03T21:13:23.413Z,5.83
2019-04-03T21:18:26.896Z,6.00
2019-04-03T21:23:33.274Z,5.87
2019-04-03T21:28:35.879Z,6.25
2019-04-03T21:33:39.380Z,6.53
2019-04-03T21:38:42.855Z,6.12
2019-04-03T21:43:46.420Z,5.80
2019-04-03T21:48:49.931Z,6.22
2019-04-03T21:53:55.845Z,5.90
2019-04-03T21:58:58.636Z,6.55
2019-04-03T22:04:02.122Z,6.60
2019-04-03T22:09:08.949Z,6.42
2019-04-03T22:14:12.431Z,6.33
2019-04-03T22:19:15.960Z,6.22
2019-04-03T22:24:19.417Z,6.30
2019-04-03T22:29:22.896Z,6.70
2019-04-03T22:34:27.980Z,6.17
2019-04-03T22:39:31.712Z,6.10
2019-04-03T22:44:35.175Z,6.47
2019-04-03T22:49:38.647Z,6.30
2019-04-03T22:54:43.962Z,6.08
2019-04-03T22:59:47.346Z,6.20
2019-04-03T23:04:50.933Z,6.08
2019-04-03T23:09:56.488Z,6.22
2019-04-03T23:14:59.688Z,6.67
2019-04-03T23:20:03.153Z,6.15
2019-04-03T23:25:07.192Z,6.22
2019-04-03T23:30:11.021Z,6.47
2019-04-03T23:35:14.555Z,6.67
2019-04-03T23:40:18.721Z,6.05
2019-04-03T23:45:23.746Z,6.30
2019-04-03T23:50:27.266Z,6.37
2019-04-03T23:55:30.804Z,6.67
